createdAt,value
2023-04-03T00:01:19.847Z,7.90
2023-04-03T00:03:48.254Z,8.00
2023-04-03T00:06:16.324Z,8.00
2023-04-03T00:08:45.141Z,7.50
2023-04-03T00:11:16.380Z,11.50
2023-04-03T00:13:45.708Z,8.60
2023-04-03T00:16:13.846Z,6.60
2023-04-03T00:18:42.431Z,7.20
2023-04-03T00:21:13.351Z,7.20
2023-04-03T00:23:41.425Z,7.80
2023-04-03T00:26:09.805Z,7.70
2023-04-03T00:28:39.162Z,6.60
2023-04-03T00:31:08.771Z,8.00
2023-04-03T00:33:36.978Z,7.80
2023-04-03T00:36:12.229Z,6.80
2023-04-03T00:38:40.743Z,9.00
2023-04-03T00:41:10.043Z,7.40
2023-04-03T00:43:38.483Z,10.50
2023-04-03T00:46:06.729Z,7.00
2023-04-03T00:48:34.941Z,7.00
2023-04-03T00:51:06.797Z,7.80
2023-04-03T00:53:41.864Z,11.70
2023-04-03T00:56:13.596Z,6.50
2023-04-03T00:58:48.080Z,9.80
2023-04-03T01:01:23.202Z,6.70
2023-04-03T01:03:52.411Z,6.80
2023-04-03T01:06:28.490Z,6.60
2023-04-03T01:09:05.737Z,5.60
2023-04-03T01:11:34.171Z,6.40
2023-04-03T01:14:03.097Z,7.50
2023-04-03T01:16:33.041Z,5.70
2023-04-03T01:19:04.219Z,6.10
2023-04-03T01:21:41.349Z,6.20
2023-04-03T01:24:26.383Z,6.70
2023-04-03T01:26:58.340Z,8.20
2023-04-03T01:29:44.908Z,5.60
2023-04-03T01:32:13.191Z,5.50
2023-04-03T01:34:56.520Z,6.20
2023-04-03T01:37:24.764Z,6.70
2023-04-03T01:39:54.861Z,6.80
2023-04-03T01:42:25.683Z,10.00
2023-04-03T01:44:56.965Z,7.30
2023-04-03T01:47:25.101Z,7.90
2023-04-03T01:49:53.307Z,7.30
2023-04-03T01:52:21.419Z,7.80
2023-04-03T01:54:59.772Z,7.20
2023-04-03T01:57:32.617Z,6.80
2023-04-03T02:00:12.679Z,7.30
2023-04-03T02:02:43.767Z,5.60
2023-04-03T02:05:20.579Z,9.20
2023-04-03T02:07:48.595Z,5.80
2023-04-03T02:10:16.753Z,9.20
2023-04-03T02:12:49.440Z,9.80
2023-04-03T02:15:20.738Z,7.30
2023-04-03T02:18:40.927Z,6.70
2023-04-03T02:21:01.979Z,7.60
2023-04-03T02:23:42.002Z,6.50
2023-04-03T02:26:17.580Z,6.00
2023-04-03T02:28:50.561Z,7.30
2023-04-03T02:31:28.323Z,6.50
2023-04-03T02:33:59.468Z,7.00
2023-04-03T02:36:32.938Z,5.40
2023-04-03T02:39:03.716Z,7.70
2023-04-03T02:41:35.865Z,7.90
2023-04-03T02:44:07.112Z,7.40
2023-04-03T02:46:35.346Z,8.40
2023-04-03T02:49:07.152Z,8.70
2023-04-03T02:51:40.675Z,8.10
2023-04-03T02:54:33.012Z,6.90
2023-04-03T02:57:11.203Z,7.00
2023-04-03T02:59:42.993Z,8.30
2023-04-03T03:02:12.561Z,6.60
2023-04-03T03:04:43.985Z,7.10
2023-04-03T03:07:15.804Z,5.20
2023-04-03T03:09:43.980Z,6.60
2023-04-03T03:12:18.296Z,6.10
2023-04-03T03:14:46.356Z,7.70
2023-04-03T03:17:14.681Z,6.40
2023-04-03T03:19:50.574Z,6.00
2023-04-03T03:22:19.846Z,6.60
2023-04-03T03:24:48.019Z,6.30
2023-04-03T03:27:17.189Z,5.90
2023-04-03T03:29:45.946Z,7.30
2023-04-03T03:32:14.804Z,7.60
2023-04-03T03:37:15.383Z,6.00
2023-04-03T03:39:43.733Z,5.20
2023-04-03T03:42:12.400Z,6.90
2023-04-03T03:44:40.562Z,6.80
2023-04-03T03:47:18.587Z,6.40
2023-04-03T03:49:46.743Z,8.10
2023-04-03T03:52:14.980Z,6.90
2023-04-03T03:54:43.400Z,4.60
2023-04-03T03:57:11.921Z,6.50
2023-04-03T03:59:42.970Z,7.00
2023-04-03T04:02:12.494Z,6.70
2023-04-03T04:04:40.718Z,6.30
2023-04-03T04:07:09.036Z,6.50
2023-04-03T04:09:42.117Z,6.70
2023-04-03T04:12:33.869Z,6.30
2023-04-03T04:15:06.389Z,5.70
2023-04-03T04:17:36.427Z,5.00
2023-04-03T04:20:06.250Z,6.80
2023-04-03T04:22:42.276Z,5.30
2023-04-03T04:25:17.358Z,5.40
2023-04-03T04:27:56.035Z,6.60
2023-04-03T04:30:24.399Z,6.70
2023-04-03T04:32:53.171Z,5.10
2023-04-03T04:35:22.199Z,5.10
2023-04-03T04:37:51.299Z,5.10
2023-04-03T04:40:19.817Z,5.40
2023-04-03T04:42:50.802Z,6.80
2023-04-03T04:45:31.704Z,6.10
2023-04-03T04:48:01.237Z,6.80
2023-04-03T04:50:29.641Z,5.40
2023-04-03T04:52:58.022Z,5.50
2023-04-03T04:55:26.516Z,6.60
2023-04-03T04:57:55.129Z,7.00
2023-04-03T05:00:24.548Z,6.30
2023-04-03T05:02:52.698Z,7.80
2023-04-03T05:05:21.292Z,6.20
2023-04-03T05:07:49.536Z,6.20
2023-04-03T05:10:18.634Z,4.90
2023-04-03T05:12:47.256Z,5.20
2023-04-03T05:15:16.360Z,10.80
2023-04-03T05:17:45.630Z,6.10
2023-04-03T05:20:15.179Z,6.70
2023-04-03T05:22:44.113Z,6.50
2023-04-03T05:25:12.291Z,5.50
2023-04-03T05:27:41.293Z,6.30
2023-04-03T05:30:11.865Z,6.50
2023-04-03T05:32:43.609Z,4.70
2023-04-03T05:35:19.028Z,7.10
2023-04-03T05:37:48.709Z,10.90
2023-04-03T05:40:18.716Z,8.80
2023-04-03T05:42:48.128Z,7.50
2023-04-03T05:45:17.461Z,9.00
2023-04-03T05:47:48.510Z,7.40
2023-04-03T05:50:16.778Z,8.50
2023-04-03T05:52:49.720Z,6.60
2023-04-03T05:55:28.068Z,7.20
2023-04-03T05:57:57.765Z,6.60
2023-04-03T06:00:30.505Z,4.70
2023-04-03T06:03:07.581Z,5.90
2023-04-03T06:05:39.836Z,4.10
2023-04-03T06:08:19.734Z,4.80
2023-04-03T06:11:12.989Z,4.20
2023-04-03T06:13:50.687Z,6.10
2023-04-03T06:16:20.728Z,5.00
2023-04-03T06:18:59.160Z,6.00
2023-04-03T06:21:48.109Z,5.40
2023-04-03T06:24:23.856Z,4.80
2023-04-03T06:27:32.025Z,5.90
2023-04-03T06:33:10.782Z,4.80
2023-04-03T06:35:43.398Z,6.50
2023-04-03T06:38:17.481Z,6.50
2023-04-03T06:41:11.206Z,2.80
2023-04-03T06:43:39.611Z,3.80
2023-04-03T06:46:22.243Z,7.30
2023-04-03T06:49:03.908Z,3.60
2023-04-03T06:51:37.825Z,6.70
2023-04-03T06:54:09.935Z,3.50
2023-04-03T06:57:04.301Z,3.70
2023-04-03T06:59:37.806Z,3.60
2023-04-03T07:02:40.077Z,3.20
2023-04-03T07:05:14.396Z,3.90
2023-04-03T07:07:58.271Z,3.30
2023-04-03T07:10:26.947Z,3.10
2023-04-03T07:12:57.745Z,4.60
2023-04-03T07:15:49.535Z,5.20
2023-04-03T07:18:27.791Z,5.70
2023-04-03T07:20:59.340Z,4.70
2023-04-03T07:23:31.026Z,8.10
2023-04-03T07:26:27.010Z,4.40
2023-04-03T07:28:55.232Z,4.60
2023-04-03T07:31:24.256Z,3.60
2023-04-03T07:33:57.618Z,4.70
2023-04-03T07:36:34.613Z,3.60
2023-04-03T07:39:13.588Z,4.80
2023-04-03T07:41:57.342Z,4.80
2023-04-03T07:44:41.556Z,3.10
2023-04-03T07:47:27.086Z,4.20
2023-04-03T07:50:04.130Z,4.90
2023-04-03T07:52:48.068Z,3.20
2023-04-03T07:55:16.525Z,2.60
2023-04-03T07:58:15.350Z,5.80
2023-04-03T08:00:46.102Z,2.50
2023-04-03T08:03:18.103Z,3.10
2023-04-03T08:05:49.341Z,2.80
2023-04-03T08:08:21.583Z,3.00
2023-04-03T08:11:03.713Z,4.80
2023-04-03T08:13:38.387Z,2.70
2023-04-03T08:16:21.579Z,3.00
2023-04-03T08:18:50.455Z,2.20
2023-04-03T08:21:27.209Z,3.30
2023-04-03T08:23:55.768Z,2.50
2023-04-03T08:26:24.351Z,2.50
2023-04-03T08:29:14.005Z,2.30
2023-04-03T08:31:44.601Z,5.70
2023-04-03T08:34:14.323Z,2.00
2023-04-03T08:36:45.591Z,6.10
2023-04-03T08:39:21.610Z,4.10
2023-04-03T08:41:56.482Z,4.30
2023-04-03T08:44:57.804Z,2.00
2023-04-03T08:47:38.044Z,1.90
2023-04-03T08:50:22.171Z,5.60
2023-04-03T08:53:33.624Z,3.30
2023-04-03T08:56:09.106Z,12.00
2023-04-03T08:59:17.248Z,4.10
2023-04-03T09:01:48.697Z,1.90
2023-04-03T09:04:18.994Z,3.20
2023-04-03T09:07:03.756Z,4.20
2023-04-03T09:09:44.892Z,5.60
2023-04-03T09:12:40.913Z,2.80
2023-04-03T09:15:35.678Z,5.20
2023-04-03T09:18:19.920Z,5.00
2023-04-03T09:20:57.246Z,5.80
2023-04-03T09:23:56.059Z,3.00
2023-04-03T09:26:53.628Z,3.90
2023-04-03T09:29:59.387Z,2.50
2023-04-03T09:32:39.863Z,6.80
2023-04-03T09:38:29.122Z,6.10
2023-04-03T09:41:21.764Z,3.60
2023-04-03T09:46:34.084Z,5.00
2023-04-03T09:51:54.297Z,3.90
2023-04-03T09:54:39.576Z,5.10
2023-04-03T09:57:18.366Z,1.60
2023-04-03T10:00:00.844Z,4.50
2023-04-03T10:02:34.171Z,5.10
2023-04-03T10:05:36.823Z,4.30
2023-04-03T10:08:51.506Z,4.00
2023-04-03T10:11:30.358Z,6.90
2023-04-03T10:14:05.925Z,3.90
2023-04-03T10:17:08.006Z,3.80
2023-04-03T10:20:12.639Z,3.80
2023-04-03T10:23:14.177Z,5.60
2023-04-03T10:25:52.092Z,6.60
2023-04-03T10:30:28.979Z,2.90
2023-04-03T10:35:34.465Z,5.70
2023-04-03T10:38:19.749Z,6.00
2023-04-03T10:41:14.907Z,3.30
2023-04-03T10:47:21.449Z,8.20
2023-04-03T10:50:23.513Z,10.10
2023-04-03T10:53:14.948Z,7.20
2023-04-03T10:56:06.285Z,7.70
2023-04-03T10:59:13.818Z,6.90
2023-04-03T11:01:59.522Z,2.60
2023-04-03T11:04:39.722Z,5.20
2023-04-03T11:07:30.163Z,7.50
2023-04-03T11:10:26.054Z,7.70
2023-04-03T11:13:17.338Z,5.20
2023-04-03T11:16:10.025Z,8.10
2023-04-03T11:18:55.288Z,12.10
2023-04-03T11:21:41.765Z,10.70
2023-04-03T11:24:28.081Z,14.10
2023-04-03T11:27:26.280Z,8.10
2023-04-03T11:30:01.026Z,5.20
2023-04-03T11:33:04.558Z,3.80
2023-04-03T11:35:43.920Z,10.10
2023-04-03T11:38:24.426Z,7.70
2023-04-03T11:41:02.452Z,6.20
2023-04-03T11:43:39.505Z,7.30
2023-04-03T11:46:38.402Z,3.40
2023-04-03T11:49:45.245Z,9.60
2023-04-03T11:55:28.605Z,3.50
2023-04-03T11:58:27.538Z,13.00
2023-04-03T12:01:00.510Z,7.40
2023-04-03T12:03:43.557Z,13.90
2023-04-03T12:06:14.793Z,8.20
2023-04-03T12:08:44.578Z,15.80
2023-04-03T12:11:56.432Z,3.90
2023-04-03T12:14:27.586Z,8.70
2023-04-03T12:17:33.502Z,8.30
2023-04-03T12:21:03.522Z,12.20
2023-04-03T12:23:43.192Z,10.90
2023-04-03T12:26:48.628Z,8.50
2023-04-03T12:29:33.552Z,10.10
2023-04-03T12:33:13.176Z,6.70
2023-04-03T12:36:12.482Z,10.50
2023-04-03T12:39:04.894Z,9.40
2023-04-03T12:41:55.201Z,14.40
2023-04-03T12:44:32.162Z,12.90
2023-04-03T12:47:22.535Z,14.90
2023-04-03T12:50:42.529Z,4.30
2023-04-03T12:53:45.238Z,7.90
2023-04-03T12:56:33.719Z,7.50
2023-04-03T12:59:31.113Z,14.80
2023-04-03T13:02:31.570Z,9.20
2023-04-03T13:05:37.169Z,8.30
2023-04-03T13:08:32.065Z,14.60
2023-04-03T13:11:29.475Z,12.60
2023-04-03T13:14:34.487Z,9.10
2023-04-03T13:17:20.796Z,8.40
2023-04-03T13:19:53.521Z,4.80
2023-04-03T13:22:44.991Z,11.50
2023-04-03T13:25:35.654Z,6.80
2023-04-03T13:28:28.808Z,12.10
2023-04-03T13:31:29.386Z,8.00
2023-04-03T13:34:22.207Z,9.60
2023-04-03T13:37:06.275Z,10.10
2023-04-03T13:39:43.423Z,10.70
2023-04-03T13:42:30.110Z,11.50
2023-04-03T13:45:37.292Z,10.80
2023-04-03T13:48:25.460Z,15.00
2023-04-03T13:51:18.794Z,16.40
2023-04-03T13:53:59.460Z,15.30
2023-04-03T13:57:04.341Z,14.00
2023-04-03T13:59:46.886Z,20.10
2023-04-03T14:02:25.861Z,19.00
2023-04-03T14:05:35.180Z,21.20
2023-04-03T14:08:15.560Z,9.30
2023-04-03T14:11:04.877Z,10.80
2023-04-03T14:13:40.010Z,7.80
2023-04-03T14:16:24.912Z,16.50
2023-04-03T14:19:00.813Z,18.70
2023-04-03T14:21:45.718Z,17.30
2023-04-03T14:24:40.888Z,11.80
2023-04-03T14:27:39.283Z,14.40
2023-04-03T14:30:28.050Z,20.40
2023-04-03T14:33:03.143Z,11.60
2023-04-03T14:39:10.901Z,19.00
2023-04-03T14:39:21.172Z,16.70
2023-04-03T14:41:58.946Z,12.90
2023-04-03T14:45:26.738Z,20.70
2023-04-03T14:48:02.541Z,12.40
2023-04-03T14:50:46.918Z,14.10
2023-04-03T14:53:52.456Z,14.90
2023-04-03T14:56:32.201Z,21.40
2023-04-03T14:59:31.168Z,12.60
2023-04-03T15:05:11.469Z,18.90
2023-04-03T15:08:05.127Z,13.00
2023-04-03T15:11:07.928Z,19.60
2023-04-03T15:13:49.667Z,15.10
2023-04-03T15:17:08.823Z,15.10
2023-04-03T15:19:48.080Z,11.60
2023-04-03T15:25:56.505Z,19.00
2023-04-03T15:31:55.728Z,20.10
2023-04-03T15:34:56.031Z,18.10
2023-04-03T15:37:53.481Z,24.80
2023-04-03T15:40:22.406Z,19.50
2023-04-03T15:43:24.733Z,22.10
2023-04-03T15:46:34.287Z,28.00
2023-04-03T15:58:32.684Z,22.60
2023-04-03T16:01:16.238Z,20.60
2023-04-03T16:04:00.281Z,12.30
2023-04-03T16:06:37.372Z,10.20
2023-04-03T16:09:15.302Z,14.30
2023-04-03T16:12:20.192Z,19.80
2023-04-03T16:15:24.227Z,13.30
2023-04-03T16:21:43.310Z,17.40
2023-04-03T16:24:47.829Z,23.40
2023-04-03T16:27:29.424Z,13.90
2023-04-03T16:30:30.205Z,23.10
2023-04-03T16:33:10.487Z,11.10
2023-04-03T16:35:39.361Z,9.30
2023-04-03T16:38:31.195Z,9.90
2023-04-03T16:41:13.424Z,17.60
2023-04-03T16:44:08.555Z,11.70
2023-04-03T16:46:47.774Z,22.90
2023-04-03T16:49:37.817Z,8.70
2023-04-03T16:52:11.280Z,16.70
2023-04-03T16:55:02.791Z,20.10
2023-04-03T16:57:44.995Z,16.20
2023-04-03T17:00:18.952Z,17.30
2023-04-03T17:03:16.177Z,11.50
2023-04-03T17:05:55.027Z,15.20
2023-04-03T17:08:41.584Z,10.40
2023-04-03T17:11:40.317Z,14.10
2023-04-03T17:14:30.688Z,12.00
2023-04-03T17:17:00.712Z,15.30
2023-04-03T17:19:59.886Z,12.00
2023-04-03T17:22:33.271Z,12.40
2023-04-03T17:25:12.059Z,15.90
2023-04-03T17:27:53.470Z,5.70
2023-04-03T17:30:36.732Z,9.40
2023-04-03T17:33:26.287Z,14.10
2023-04-03T17:36:08.098Z,18.10
2023-04-03T17:39:29.815Z,8.90
2023-04-03T17:42:28.393Z,9.00
2023-04-03T17:49:04.081Z,12.90
2023-04-03T17:53:18.894Z,17.10
2023-04-03T17:57:00.384Z,12.90
2023-04-03T18:00:24.432Z,9.50
2023-04-03T18:03:17.984Z,17.30
2023-04-03T18:12:13.970Z,7.30
2023-04-03T18:15:10.549Z,13.40
2023-04-03T18:18:07.813Z,10.60
2023-04-03T18:21:05.975Z,10.90
2023-04-03T18:24:04.799Z,16.00
2023-04-03T18:26:37.496Z,14.20
2023-04-03T18:29:09.974Z,12.00
2023-04-03T18:31:42.286Z,15.80
2023-04-03T18:34:24.227Z,14.80
2023-04-03T18:37:16.385Z,9.60
2023-04-03T18:39:47.359Z,15.00
2023-04-03T18:42:20.116Z,13.90
2023-04-03T18:45:06.756Z,15.50
2023-04-03T18:47:55.891Z,11.10
2023-04-03T18:50:24.258Z,17.40
2023-04-03T18:52:55.788Z,16.40
2023-04-03T18:55:32.414Z,12.00
2023-04-03T18:58:18.754Z,13.80
2023-04-03T19:00:52.623Z,11.90
2023-04-03T19:04:24.357Z,12.00
2023-04-03T19:07:29.493Z,13.80
2023-04-03T19:13:05.832Z,11.10
2023-04-03T19:15:41.020Z,7.30
2023-04-03T19:18:27.222Z,12.20
2023-04-03T19:21:14.257Z,7.80
2023-04-03T19:24:01.072Z,6.40
2023-04-03T19:26:41.786Z,8.60
2023-04-03T19:31:41.767Z,8.60
2023-04-03T19:34:09.993Z,8.80
2023-04-03T19:36:38.281Z,9.40
2023-04-03T19:39:06.651Z,19.60
2023-04-03T19:41:50.510Z,13.80
2023-04-03T19:44:24.662Z,8.90
2023-04-03T19:46:53.192Z,8.20
2023-04-03T19:49:21.615Z,6.40
2023-04-03T19:51:49.956Z,5.80
2023-04-03T19:54:18.364Z,10.90
2023-04-03T19:56:46.806Z,14.50
2023-04-03T19:59:42.424Z,8.30
2023-04-03T20:02:14.198Z,5.90
2023-04-03T20:04:53.147Z,11.50
2023-04-03T20:07:29.711Z,8.20
2023-04-03T20:10:06.142Z,13.50
2023-04-03T20:13:57.048Z,7.40
2023-04-03T20:16:26.266Z,7.40
2023-04-03T20:19:00.377Z,7.00
2023-04-03T20:21:42.919Z,9.40
2023-04-03T20:24:39.415Z,8.70
2023-04-03T20:27:23.385Z,6.60
2023-04-03T20:30:10.582Z,7.40
2023-04-03T20:32:56.631Z,9.90
2023-04-03T20:35:28.856Z,8.80
2023-04-03T20:39:17.601Z,6.20
2023-04-03T20:41:45.020Z,5.10
2023-04-03T20:44:19.898Z,6.40
2023-04-03T20:47:12.624Z,10.00
2023-04-03T20:50:04.028Z,9.00
2023-04-03T20:52:33.662Z,9.20
2023-04-03T20:55:05.153Z,6.70
2023-04-03T20:57:44.479Z,8.30
2023-04-03T21:01:01.343Z,6.60
2023-04-03T21:07:46.793Z,6.50
2023-04-03T21:10:53.235Z,10.50
2023-04-03T21:13:59.031Z,8.30
2023-04-03T21:16:29.511Z,8.60
2023-04-03T21:21:27.205Z,6.20
2023-04-03T21:24:04.854Z,8.60
2023-04-03T21:26:46.135Z,7.70
2023-04-03T21:32:17.024Z,7.80
2023-04-03T21:34:50.142Z,10.00
2023-04-03T21:37:41.111Z,7.50
2023-04-03T21:40:09.718Z,7.40
2023-04-03T21:42:40.861Z,7.20
2023-04-03T21:45:10.342Z,8.30
2023-04-03T21:47:48.274Z,7.70
2023-04-03T21:50:28.086Z,8.10
2023-04-03T21:53:05.443Z,9.10
2023-04-03T21:55:35.935Z,8.00
2023-04-03T21:58:16.129Z,7.80
2023-04-03T22:03:36.380Z,6.70
2023-04-03T22:06:12.738Z,6.60
2023-04-03T22:08:41.305Z,8.00
2023-04-03T22:11:15.139Z,6.20
2023-04-03T22:13:44.364Z,8.70
2023-04-03T22:16:20.207Z,7.70
2023-04-03T22:19:21.907Z,5.80
2023-04-03T22:21:56.080Z,8.50
2023-04-03T22:24:24.775Z,7.20
2023-04-03T22:27:13.211Z,7.50
2023-04-03T22:29:55.557Z,6.30
2023-04-03T22:32:25.226Z,6.80
2023-04-03T22:34:54.908Z,8.40
2023-04-03T22:37:27.667Z,7.70
2023-04-03T22:39:55.890Z,6.00
2023-04-03T22:42:24.204Z,7.40
2023-04-03T22:44:57.169Z,6.10
2023-04-03T22:47:28.628Z,6.80
2023-04-03T22:50:11.270Z,7.50
2023-04-03T22:52:39.437Z,6.80
2023-04-03T22:55:18.577Z,9.30
2023-04-03T22:57:57.463Z,7.60
2023-04-03T23:00:39.561Z,8.90
2023-04-03T23:03:39.470Z,6.10
2023-04-03T23:06:32.221Z,9.30
2023-04-03T23:09:00.387Z,6.40
2023-04-03T23:11:30.837Z,7.70
2023-04-03T23:14:19.503Z,5.10
2023-04-03T23:17:11.984Z,4.60
2023-04-03T23:19:56.237Z,7.40
2023-04-03T23:23:00.534Z,5.60
2023-04-03T23:28:14.893Z,8.30
2023-04-03T23:30:53.493Z,6.80
2023-04-03T23:33:23.874Z,5.00
2023-04-03T23:36:25.294Z,6.60
2023-04-03T23:39:09.448Z,7.20
2023-04-03T23:41:44.565Z,5.90
2023-04-03T23:44:19.519Z,8.50
2023-04-03T23:47:09.349Z,8.50
2023-04-03T23:49:54.800Z,8.40
2023-04-03T23:52:57.487Z,8.50
2023-04-03T23:55:29.124Z,6.10
2023-04-03T23:58:13.257Z,5.60
